EW7345 Weather Reports


Display with metric or nautical units.
time (UTC)temp
F
wind
direction
speed
MPH
gust
MPH
rain 1hr
in
rain 24hr
in
rain mn
in
humidity
%
barometer
mb
20190216031658 45 281 0.0 0.0 0.00 0.01 0.00 82 1025.0
20190216030145 45 281 0.0 0.0 0.00 0.01 0.00 81 1025.0
20190216023148 45 281 0.0 0.0 0.00 0.01 0.00 80 1025.0
20190216020210 46 281 0.0 0.0 0.00 0.01 0.00 80 1025.1
20190216014631 46 281 0.0 0.0 0.00 0.01 0.00 80 1025.4
20190216011713 46 281 0.0 0.0 0.00 0.01 0.00 81 1025.5
20190216010222 46 281 0.0 0.0 0.00 0.01 0.00 80 1025.5
20190216004707 46 281 0.0 0.0 0.00 0.01 0.00 81 1025.6
20190216003339 45 281 0.0 0.0 0.00 0.01 0.00 81 1025.7
20190216001637 45 281 0.0 0.0 0.00 0.01 0.00 79 1025.8
20190215234746 47 327 0.0 0.0 0.00 0.01 0.00 76 1025.6
20190215233157 47 327 0.0 0.0 0.00 0.01 0.00 76 1025.8
20190215230236 48 327 0.0 0.0 0.00 0.01 0.00 75 1026.1
20190215224721 48 283 0.0 0.0 0.00 0.01 0.01 75 1026.1
20190215221708 49 283 0.0 0.0 0.00 0.01 0.01 74 1026.1
20190215220217 49 276 0.0 0.0 0.00 0.01 0.01 74 1026.2
20190215213142 50 68 0.0 0.0 0.00 0.01 0.01 70 1026.0
20190215210144 51 68 0.0 0.0 0.00 0.01 0.01 69 1026.0
20190215203319 52 63 0.0 0.0 0.00 0.01 0.01 68 1026.0
20190215201657 52 67 0.0 0.0 0.00 0.01 0.01 68 1026.1
20190215194719 53 63 0.0 6.0 0.00 0.01 0.01 67 1026.2
20190215191823 54 49 3.0 7.0 0.00 0.01 0.01 64 1026.1
20190215190134 55 58 4.0 9.0 0.00 0.01 0.01 63 1026.2
20190215184658 56 53 5.0 10.0 0.00 0.01 0.01 62 1026.1
20190215181808 58 67 4.0 7.0 0.00 0.01 0.01 59 1025.9
20190215174648 59 55 0.0 2.0 0.00 0.01 0.01 57 1025.7
20190215171758 61 72 0.0 9.0 0.00 0.01 0.01 53 1025.6
20190215164734 63 70 1.0 9.0 0.00 0.01 0.01 48 1025.4
20190215163305 64 43 0.0 3.0 0.00 0.01 0.01 42 1025.4
20190215160231 65 103 0.0 11.0 0.00 0.01 0.01 44 1025.6
20190215153226 66 109 0.0 10.0 0.00 0.01 0.01 43 1025.5
20190215151752 66 57 0.0 3.0 0.00 0.01 0.01 44 1025.8
20190215150153 65 80 1.0 8.0 0.00 0.01 0.01 43 1025.8
20190215143202 65 108 1.0 8.0 0.00 0.01 0.01 47 1026.3
20190215141646 64 103 4.0 10.0 0.00 0.01 0.01 52 1026.6
20190215134645 62 73 0.0 10.0 0.00 0.01 0.01 51 1027.0
20190215131645 61 123 6.0 11.0 0.00 0.01 0.01 51 1027.5
20190215130250 62 59 0.0 8.0 0.00 0.01 0.01 49 1027.9
20190215123225 60 76 4.0 11.0 0.00 0.01 0.01 54 1028.6
20190215120135 58 92 6.0 11.0 0.00 0.01 0.01 59 1029.2
20190215113313 57 105 3.0 7.0 0.00 0.01 0.01 62 1029.8
20190215110152 55 97 5.0 9.0 0.00 0.01 0.01 68 1030.3
20190215103245 53 124 5.0 11.0 0.00 0.01 0.01 74 1029.9
20190215100143 50 104 3.0 9.0 0.00 0.01 0.01 85 1029.9
20190215094651 48 116 4.0 9.0 0.00 0.01 0.01 91 1029.8
20190215091701 46 115 2.0 7.0 0.00 0.01 0.01 94 1029.9
20190215090129 45 121 2.0 4.0 0.00 0.01 0.01 94 1030.0
20190215084710 44 105 0.0 2.0 0.00 0.01 0.01 94 1030.0
20190215081654 41 130 3.0 4.0 0.00 0.01 0.01 94 1029.6
20190215080146 40 121 0.0 0.0 0.00 0.01 0.01 93 1029.4
20190215074713 40 101 0.0 0.0 0.00 0.01 0.01 93 1029.2
20190215073122 40 98 0.0 0.0 0.00 0.01 0.01 93 1029.2
20190215070242 40 79 0.0 2.0 0.00 0.01 0.01 93 1028.9
20190215063235 40 98 0.0 1.0 0.01 0.01 0.01 92 1029.0
20190215061723 40 121 1.0 6.0 0.01 0.01 0.01 92 1028.8
20190215054632 40 117 4.0 6.0 0.00 0.00 0.00 92 1028.9
20190215051658 39 116 2.0 6.0 0.00 0.00 0.00 91 1028.9
20190215044701 40 109 3.0 6.0 0.00 0.00 0.00 91 1029.1
20190215043217 40 130 2.0 9.0 0.00 0.00 0.00 90 1029.1
20190215040150 40 119 3.0 7.0 0.00 0.00 0.00 90 1029.1